< < Back
Terminal Aerodrome Forecast


Current Version              Previous Versions:   1  2  3  4  5  6  7  8  9  

Terminal Aerodrome Forecast

660
FTUS44 KBMX 262330
TAFANB
TAF
KANB 262330Z 2700/2724 00000KT P6SM FEW100 SCT250
     FM271600 10006KT P6SM SCT050=

Latest METAR

808
SAUS70 KWBC 271600 RRA
MTRANB
METAR KANB 271553Z AUTO 02005KT 10SM FEW060 32/19 A3011 RMK AO2 SLP183
T03220189


USA.gov is the U.S. government's official web portal to all federal, state and local government web resources and services.